Burrton, Kansas
Current Conditions -  °F | °C
As of 7:52 AM on Thursday 29 Jan 2015 (Local Time) from KHUT Reporting Station
Scattered Clouds Scattered Clouds  
Wind Chill: 30°   Ceiling: Unl
Heat Index: 40°   Visibility: 10mi
Dew Point: 29°   Wind: 22mph
Humidity: 65%   Direction: 350°N
Pressure: 30.34"   Gusts: 30mph
Location:  38.02°N, 97.67°W
Report Text: KHUT 291352Z 35019G26KT 10SM SCT028 04/M02 A3034 RMK AO2 PK WND 33026/1347 SLP273 T00441017 $
Loading
Personal Weather Stations






























Interactive Weather Map New forecast layout! Learn more

10-Day Weather Forecast

Advertisements
Track Severe Weather on mobile